sensor_id;sensor_type;location;lat;lon;timestamp;temperature;humidity
16408;DHT22;8313;49.894;8.084;2024-03-23T00:55:42;11.20;99.90
16408;DHT22;8313;49.894;8.084;2024-03-23T00:58:08;11.30;99.90
16408;DHT22;8313;49.894;8.084;2024-03-23T01:00:34;11.30;99.90
16408;DHT22;8313;49.894;8.084;2024-03-23T01:03:00;11.20;99.90
16408;DHT22;8313;49.894;8.084;2024-03-23T01:05:26;11.20;99.90
16408;DHT22;8313;49.894;8.084;2024-03-23T01:07:51;11.30;99.90
16408;DHT22;8313;49.894;8.084;2024-03-23T01:10:17;11.30;99.90
16408;DHT22;8313;49.894;8.084;2024-03-23T01:12:42;11.40;99.90
16408;DHT22;8313;49.894;8.084;2024-03-23T01:15:08;11.40;99.90
16408;DHT22;8313;49.894;8.084;2024-03-23T01:17:34;11.40;99.90
16408;DHT22;8313;49.894;8.084;2024-03-23T01:20:00;11.40;99.90
16408;DHT22;8313;49.894;8.084;2024-03-23T01:22:25;11.30;99.90
16408;DHT22;8313;49.894;8.084;2024-03-23T01:24:51;11.30;99.90
16408;DHT22;8313;49.894;8.084;2024-03-23T01:27:17;11.30;99.90
16408;DHT22;8313;49.894;8.084;2024-03-23T01:29:42;11.40;99.90
16408;DHT22;8313;49.894;8.084;2024-03-23T01:32:08;11.30;99.90
16408;DHT22;8313;49.894;8.084;2024-03-23T01:34:33;11.30;99.90
16408;DHT22;8313;49.894;8.084;2024-03-23T01:36:59;11.30;99.90
16408;DHT22;8313;49.894;8.084;2024-03-23T01:39:25;11.30;99.90
16408;DHT22;8313;49.894;8.084;2024-03-23T01:41:51;11.40;99.90
16408;DHT22;8313;49.894;8.084;2024-03-23T01:44:17;11.30;99.90
16408;DHT22;8313;49.894;8.084;2024-03-23T01:46:44;11.40;99.90
16408;DHT22;8313;49.894;8.084;2024-03-23T01:49:10;11.40;99.90
16408;DHT22;8313;49.894;8.084;2024-03-23T01:51:36;11.30;99.90
16408;DHT22;8313;49.894;8.084;2024-03-23T01:54:03;11.30;99.90
16408;DHT22;8313;49.894;8.084;2024-03-23T01:56:31;11.30;99.90
16408;DHT22;8313;49.894;8.084;2024-03-23T01:58:58;11.30;99.90
16408;DHT22;8313;49.894;8.084;2024-03-23T02:01:24;11.30;99.90
16408;DHT22;8313;49.894;8.084;2024-03-23T02:03:49;11.30;99.90
16408;DHT22;8313;49.894;8.084;2024-03-23T02:06:15;11.30;99.90
16408;DHT22;8313;49.894;8.084;2024-03-23T02:08:40;11.30;99.90
16408;DHT22;8313;49.894;8.084;2024-03-23T02:11:06;11.30;99.90
16408;DHT22;8313;49.894;8.084;2024-03-23T02:13:32;11.20;99.90
16408;DHT22;8313;49.894;8.084;2024-03-23T02:15:58;11.30;99.90
16408;DHT22;8313;49.894;8.084;2024-03-23T02:18:23;11.20;99.90
16408;DHT22;8313;49.894;8.084;2024-03-23T02:20:49;11.20;99.90
16408;DHT22;8313;49.894;8.084;2024-03-23T02:23:15;11.20;99.90
16408;DHT22;8313;49.894;8.084;2024-03-23T02:25:42;11.20;99.90
16408;DHT22;8313;49.894;8.084;2024-03-23T02:28:08;11.10;99.90
16408;DHT22;8313;49.894;8.084;2024-03-23T02:30:33;10.90;99.90
16408;DHT22;8313;49.894;8.084;2024-03-23T02:32:59;10.90;99.90
16408;DHT22;8313;49.894;8.084;2024-03-23T02:35:25;10.70;99.90
16408;DHT22;8313;49.894;8.084;2024-03-23T02:37:50;10.60;99.90
16408;DHT22;8313;49.894;8.084;2024-03-23T02:40:16;10.50;99.90
16408;DHT22;8313;49.894;8.084;2024-03-23T02:42:42;10.50;99.90
16408;DHT22;8313;49.894;8.084;2024-03-23T02:45:08;10.50;99.90
16408;DHT22;8313;49.894;8.084;2024-03-23T02:47:34;10.40;99.90
16408;DHT22;8313;49.894;8.084;2024-03-23T02:50:00;10.40;99.90
16408;DHT22;8313;49.894;8.084;2024-03-23T02:52:26;10.40;99.90
16408;DHT22;8313;49.894;8.084;2024-03-23T02:54:51;10.40;99.90
16408;DHT22;8313;49.894;8.084;2024-03-23T02:57:17;10.40;99.90
16408;DHT22;8313;49.894;8.084;2024-03-23T02:59:43;10.50;99.90
16408;DHT22;8313;49.894;8.084;2024-03-23T03:02:08;10.50;99.90
16408;DHT22;8313;49.894;8.084;2024-03-23T03:04:34;10.30;99.90
16408;DHT22;8313;49.894;8.084;2024-03-23T03:07:00;10.20;99.90
16408;DHT22;8313;49.894;8.084;2024-03-23T03:09:26;10.10;99.90
16408;DHT22;8313;49.894;8.084;2024-03-23T03:11:51;10.20;99.90
16408;DHT22;8313;49.894;8.084;2024-03-23T03:14:17;10.30;99.90
16408;DHT22;8313;49.894;8.084;2024-03-23T03:16:43;10.30;99.90
16408;DHT22;8313;49.894;8.084;2024-03-23T03:19:08;10.30;99.90
16408;DHT22;8313;49.894;8.084;2024-03-23T03:21:36;10.20;99.90
16408;DHT22;8313;49.894;8.084;2024-03-23T03:24:02;10.20;99.90
16408;DHT22;8313;49.894;8.084;2024-03-23T03:26:28;10.10;99.90
16408;DHT22;8313;49.894;8.084;2024-03-23T03:28:54;10.20;99.90
16408;DHT22;8313;49.894;8.084;2024-03-23T03:31:20;10.10;99.90
16408;DHT22;8313;49.894;8.084;2024-03-23T03:33:46;10.00;99.90
16408;DHT22;8313;49.894;8.084;2024-03-23T03:36:12;10.00;99.90
16408;DHT22;8313;49.894;8.084;2024-03-23T03:38:37;10.00;99.90
16408;DHT22;8313;49.894;8.084;2024-03-23T03:41:04;10.00;99.90
16408;DHT22;8313;49.894;8.084;2024-03-23T03:43:31;10.10;99.90
16408;DHT22;8313;49.894;8.084;2024-03-23T03:45:58;10.00;99.90
16408;DHT22;8313;49.894;8.084;2024-03-23T03:48:24;10.10;99.90
16408;DHT22;8313;49.894;8.084;2024-03-23T03:50:49;10.30;99.90
16408;DHT22;8313;49.894;8.084;2024-03-23T03:53:16;10.40;99.90
16408;DHT22;8313;49.894;8.084;2024-03-23T03:55:41;10.50;99.90
16408;DHT22;8313;49.894;8.084;2024-03-23T03:58:07;10.50;99.90
16408;DHT22;8313;49.894;8.084;2024-03-23T04:00:33;10.50;99.90
16408;DHT22;8313;49.894;8.084;2024-03-23T04:02:58;10.50;99.90
16408;DHT22;8313;49.894;8.084;2024-03-23T04:05:24;10.40;99.90
16408;DHT22;8313;49.894;8.084;2024-03-23T04:07:50;10.30;99.90
16408;DHT22;8313;49.894;8.084;2024-03-23T04:10:15;10.20;99.90
16408;DHT22;8313;49.894;8.084;2024-03-23T04:12:42;10.10;99.90
16408;DHT22;8313;49.894;8.084;2024-03-23T04:15:08;10.00;99.90
16408;DHT22;8313;49.894;8.084;2024-03-23T04:17:34;10.00;99.90
16408;DHT22;8313;49.894;8.084;2024-03-23T04:20:01;10.00;99.90
16408;DHT22;8313;49.894;8.084;2024-03-23T04:22:27;9.90;99.90
16408;DHT22;8313;49.894;8.084;2024-03-23T04:24:53;9.90;99.90
16408;DHT22;8313;49.894;8.084;2024-03-23T04:27:19;9.90;99.90
16408;DHT22;8313;49.894;8.084;2024-03-23T04:29:49;9.90;99.90
16408;DHT22;8313;49.894;8.084;2024-03-23T04:32:15;9.90;99.90
16408;DHT22;8313;49.894;8.084;2024-03-23T04:34:41;9.90;99.90
16408;DHT22;8313;49.894;8.084;2024-03-23T04:37:06;9.90;99.90
16408;DHT22;8313;49.894;8.084;2024-03-23T04:39:33;9.80;99.90
16408;DHT22;8313;49.894;8.084;2024-03-23T04:41:58;9.90;99.90
16408;DHT22;8313;49.894;8.084;2024-03-23T04:44:24;9.80;99.90
16408;DHT22;8313;49.894;8.084;2024-03-23T04:46:50;9.80;99.90
16408;DHT22;8313;49.894;8.084;2024-03-23T04:49:15;9.90;99.90
16408;DHT22;8313;49.894;8.084;2024-03-23T04:51:41;9.70;99.90
16408;DHT22;8313;49.894;8.084;2024-03-23T04:54:12;9.70;99.90
16408;DHT22;8313;49.894;8.084;2024-03-23T04:56:37;9.70;99.90
16408;DHT22;8313;49.894;8.084;2024-03-23T04:59:03;9.70;99.90
16408;DHT22;8313;49.894;8.084;2024-03-23T05:01:31;9.60;99.90
16408;DHT22;8313;49.894;8.084;2024-03-23T05:03:57;9.50;99.90
16408;DHT22;8313;49.894;8.084;2024-03-23T05:06:23;9.50;99.90
16408;DHT22;8313;49.894;8.084;2024-03-23T05:08:49;9.40;99.90
16408;DHT22;8313;49.894;8.084;2024-03-23T05:11:15;9.50;99.90
16408;DHT22;8313;49.894;8.084;2024-03-23T05:13:41;9.40;99.90
16408;DHT22;8313;49.894;8.084;2024-03-23T05:16:07;9.50;99.90
16408;DHT22;8313;49.894;8.084;2024-03-23T05:18:34;9.40;99.90
16408;DHT22;8313;49.894;8.084;2024-03-23T05:21:00;9.40;99.90
16408;DHT22;8313;49.894;8.084;2024-03-23T05:23:26;9.40;99.90
16408;DHT22;8313;49.894;8.084;2024-03-23T05:25:52;9.40;99.90
16408;DHT22;8313;49.894;8.084;2024-03-23T05:28:18;9.30;99.90
16408;DHT22;8313;49.894;8.084;2024-03-23T05:30:50;9.40;99.90
16408;DHT22;8313;49.894;8.084;2024-03-23T05:33:17;9.40;99.90
16408;DHT22;8313;49.894;8.084;2024-03-23T05:35:42;9.30;99.90
16408;DHT22;8313;49.894;8.084;2024-03-23T05:38:08;9.20;99.90
16408;DHT22;8313;49.894;8.084;2024-03-23T05:40:34;9.20;99.90
16408;DHT22;8313;49.894;8.084;2024-03-23T05:43:03;9.10;99.90
16408;DHT22;8313;49.894;8.084;2024-03-23T05:45:29;9.10;99.90
16408;DHT22;8313;49.894;8.084;2024-03-23T05:47:55;9.10;99.90
16408;DHT22;8313;49.894;8.084;2024-03-23T05:50:22;9.00;99.90
16408;DHT22;8313;49.894;8.084;2024-03-23T05:52:49;8.90;99.90
16408;DHT22;8313;49.894;8.084;2024-03-23T05:55:14;8.80;99.90
16408;DHT22;8313;49.894;8.084;2024-03-23T05:57:40;8.80;99.90
16408;DHT22;8313;49.894;8.084;2024-03-23T06:00:08;9.00;99.90
16408;DHT22;8313;49.894;8.084;2024-03-23T06:02:44;8.80;99.90
16408;DHT22;8313;49.894;8.084;2024-03-23T06:05:13;8.90;99.90
16408;DHT22;8313;49.894;8.084;2024-03-23T06:07:38;8.90;99.90
16408;DHT22;8313;49.894;8.084;2024-03-23T06:10:05;8.80;99.90
16408;DHT22;8313;49.894;8.084;2024-03-23T06:12:31;8.90;99.90
16408;DHT22;8313;49.894;8.084;2024-03-23T06:14:57;8.90;99.90
16408;DHT22;8313;49.894;8.084;2024-03-23T06:17:23;8.80;99.90
16408;DHT22;8313;49.894;8.084;2024-03-23T06:19:48;8.80;99.90
16408;DHT22;8313;49.894;8.084;2024-03-23T06:22:15;8.70;99.90
16408;DHT22;8313;49.894;8.084;2024-03-23T06:24:41;8.60;99.90
16408;DHT22;8313;49.894;8.084;2024-03-23T06:27:06;8.40;99.90
16408;DHT22;8313;49.894;8.084;2024-03-23T06:29:32;8.50;99.90
16408;DHT22;8313;49.894;8.084;2024-03-23T06:31:58;8.40;99.90
16408;DHT22;8313;49.894;8.084;2024-03-23T06:34:24;8.30;99.90
16408;DHT22;8313;49.894;8.084;2024-03-23T06:36:49;8.40;99.90
16408;DHT22;8313;49.894;8.084;2024-03-23T06:39:16;8.50;99.90
16408;DHT22;8313;49.894;8.084;2024-03-23T06:41:54;8.60;99.90
16408;DHT22;8313;49.894;8.084;2024-03-23T06:44:20;8.50;99.90
16408;DHT22;8313;49.894;8.084;2024-03-23T06:46:46;8.60;99.90
16408;DHT22;8313;49.894;8.084;2024-03-23T06:49:13;8.60;99.90
16408;DHT22;8313;49.894;8.084;2024-03-23T06:51:38;8.60;99.90
16408;DHT22;8313;49.894;8.084;2024-03-23T06:54:05;8.50;99.90
16408;DHT22;8313;49.894;8.084;2024-03-23T06:56:30;8.60;99.90
16408;DHT22;8313;49.894;8.084;2024-03-23T06:58:57;8.50;99.90
16408;DHT22;8313;49.894;8.084;2024-03-23T07:01:22;8.50;99.90
16408;DHT22;8313;49.894;8.084;2024-03-23T07:03:48;8.50;99.90
16408;DHT22;8313;49.894;8.084;2024-03-23T07:06:14;8.50;99.90
16408;DHT22;8313;49.894;8.084;2024-03-23T07:08:39;8.50;99.90
16408;DHT22;8313;49.894;8.084;2024-03-23T07:11:05;8.50;99.90
16408;DHT22;8313;49.894;8.084;2024-03-23T07:13:31;8.50;99.90
16408;DHT22;8313;49.894;8.084;2024-03-23T07:15:57;8.50;99.90
16408;DHT22;8313;49.894;8.084;2024-03-23T07:18:23;8.50;99.90
16408;DHT22;8313;49.894;8.084;2024-03-23T07:20:56;8.50;99.90
16408;DHT22;8313;49.894;8.084;2024-03-23T07:23:22;8.50;99.90
16408;DHT22;8313;49.894;8.084;2024-03-23T07:28:24;8.40;99.90
16408;DHT22;8313;49.894;8.084;2024-03-23T07:31:07;8.50;99.90
16408;DHT22;8313;49.894;8.084;2024-03-23T07:33:38;8.50;99.90
16408;DHT22;8313;49.894;8.084;2024-03-23T07:36:04;8.60;99.90
16408;DHT22;8313;49.894;8.084;2024-03-23T07:38:31;8.60;99.90
16408;DHT22;8313;49.894;8.084;2024-03-23T07:41:23;8.50;99.90
16408;DHT22;8313;49.894;8.084;2024-03-23T07:43:49;8.50;99.90
16408;DHT22;8313;49.894;8.084;2024-03-23T07:46:16;8.50;99.90
16408;DHT22;8313;49.894;8.084;2024-03-23T07:48:42;8.50;99.90
16408;DHT22;8313;49.894;8.084;2024-03-23T07:51:09;8.50;99.90
16408;DHT22;8313;49.894;8.084;2024-03-23T07:53:36;8.50;99.90
16408;DHT22;8313;49.894;8.084;2024-03-23T07:56:06;8.60;99.90
16408;DHT22;8313;49.894;8.084;2024-03-23T07:58:32;8.70;99.90
16408;DHT22;8313;49.894;8.084;2024-03-23T08:01:04;8.70;99.90
16408;DHT22;8313;49.894;8.084;2024-03-23T08:03:31;8.80;99.90
16408;DHT22;8313;49.894;8.084;2024-03-23T08:05:56;8.60;99.90
16408;DHT22;8313;49.894;8.084;2024-03-23T08:08:22;8.70;99.90
16408;DHT22;8313;49.894;8.084;2024-03-23T08:10:52;8.80;99.90
16408;DHT22;8313;49.894;8.084;2024-03-23T08:13:19;8.70;99.90
16408;DHT22;8313;49.894;8.084;2024-03-23T08:15:45;8.90;99.90
16408;DHT22;8313;49.894;8.084;2024-03-23T08:18:13;8.90;99.90
16408;DHT22;8313;49.894;8.084;2024-03-23T08:20:41;8.80;99.90
16408;DHT22;8313;49.894;8.084;2024-03-23T08:23:07;9.00;99.90
16408;DHT22;8313;49.894;8.084;2024-03-23T08:25:33;9.00;99.90
16408;DHT22;8313;49.894;8.084;2024-03-23T08:27:59;8.90;99.90
16408;DHT22;8313;49.894;8.084;2024-03-23T08:30:25;9.00;99.90
16408;DHT22;8313;49.894;8.084;2024-03-23T08:32:51;9.10;99.90
16408;DHT22;8313;49.894;8.084;2024-03-23T08:35:17;9.10;99.90
16408;DHT22;8313;49.894;8.084;2024-03-23T08:37:43;9.20;99.90
16408;DHT22;8313;49.894;8.084;2024-03-23T08:40:09;9.30;99.90
16408;DHT22;8313;49.894;8.084;2024-03-23T08:42:35;9.30;99.90
16408;DHT22;8313;49.894;8.084;2024-03-23T08:45:01;9.40;99.90
16408;DHT22;8313;49.894;8.084;2024-03-23T08:47:27;9.40;99.90
16408;DHT22;8313;49.894;8.084;2024-03-23T08:49:52;9.50;99.90
16408;DHT22;8313;49.894;8.084;2024-03-23T08:52:18;9.50;99.90
16408;DHT22;8313;49.894;8.084;2024-03-23T08:54:44;9.40;99.90
16408;DHT22;8313;49.894;8.084;2024-03-23T08:57:09;9.50;99.90
16408;DHT22;8313;49.894;8.084;2024-03-23T08:59:35;9.60;99.90
16408;DHT22;8313;49.894;8.084;2024-03-23T09:02:01;9.70;99.90
16408;DHT22;8313;49.894;8.084;2024-03-23T09:04:26;9.80;99.90
16408;DHT22;8313;49.894;8.084;2024-03-23T09:06:52;9.90;99.90
16408;DHT22;8313;49.894;8.084;2024-03-23T09:09:18;10.00;99.90
16408;DHT22;8313;49.894;8.084;2024-03-23T09:11:45;10.20;99.90
16408;DHT22;8313;49.894;8.084;2024-03-23T09:14:11;10.10;99.90
16408;DHT22;8313;49.894;8.084;2024-03-23T09:16:36;10.30;99.90
16408;DHT22;8313;49.894;8.084;2024-03-23T09:19:02;10.40;99.90
16408;DHT22;8313;49.894;8.084;2024-03-23T09:21:28;10.50;99.90
16408;DHT22;8313;49.894;8.084;2024-03-23T09:23:54;10.60;99.90
16408;DHT22;8313;49.894;8.084;2024-03-23T09:26:20;10.60;99.90
16408;DHT22;8313;49.894;8.084;2024-03-23T09:28:48;10.70;99.90
16408;DHT22;8313;49.894;8.084;2024-03-23T09:31:14;10.80;99.90
16408;DHT22;8313;49.894;8.084;2024-03-23T09:33:40;10.80;99.90
16408;DHT22;8313;49.894;8.084;2024-03-23T09:36:07;10.90;99.90
16408;DHT22;8313;49.894;8.084;2024-03-23T09:38:33;10.90;99.90
16408;DHT22;8313;49.894;8.084;2024-03-23T09:40:59;11.00;99.90
16408;DHT22;8313;49.894;8.084;2024-03-23T09:43:25;11.00;99.90
16408;DHT22;8313;49.894;8.084;2024-03-23T09:45:51;10.90;99.90
16408;DHT22;8313;49.894;8.084;2024-03-23T09:48:17;11.00;99.90
16408;DHT22;8313;49.894;8.084;2024-03-23T09:50:45;11.10;99.90
16408;DHT22;8313;49.894;8.084;2024-03-23T09:53:12;11.00;99.90
16408;DHT22;8313;49.894;8.084;2024-03-23T09:55:39;11.00;99.90
16408;DHT22;8313;49.894;8.084;2024-03-23T09:58:05;11.00;99.90
16408;DHT22;8313;49.894;8.084;2024-03-23T10:00:37;11.00;99.90
16408;DHT22;8313;49.894;8.084;2024-03-23T10:03:04;11.00;99.90
16408;DHT22;8313;49.894;8.084;2024-03-23T10:05:32;11.00;99.90
16408;DHT22;8313;49.894;8.084;2024-03-23T10:08:00;10.90;99.90
16408;DHT22;8313;49.894;8.084;2024-03-23T10:10:26;10.80;99.90
16408;DHT22;8313;49.894;8.084;2024-03-23T10:12:52;10.80;99.90
16408;DHT22;8313;49.894;8.084;2024-03-23T10:17:47;10.70;99.90
16408;DHT22;8313;49.894;8.084;2024-03-23T10:20:19;10.30;99.90
16408;DHT22;8313;49.894;8.084;2024-03-23T10:22:45;9.90;99.90
16408;DHT22;8313;49.894;8.084;2024-03-23T10:25:11;9.60;99.90
16408;DHT22;8313;49.894;8.084;2024-03-23T10:27:39;9.70;99.90
16408;DHT22;8313;49.894;8.084;2024-03-23T10:32:35;9.40;99.90
16408;DHT22;8313;49.894;8.084;2024-03-23T10:35:22;9.30;99.90
16408;DHT22;8313;49.894;8.084;2024-03-23T10:37:48;9.10;99.90
16408;DHT22;8313;49.894;8.084;2024-03-23T10:40:15;9.20;99.90
16408;DHT22;8313;49.894;8.084;2024-03-23T10:42:41;9.10;99.90
16408;DHT22;8313;49.894;8.084;2024-03-23T10:45:07;8.50;99.90
16408;DHT22;8313;49.894;8.084;2024-03-23T10:47:35;8.00;99.90
16408;DHT22;8313;49.894;8.084;2024-03-23T10:50:04;7.70;99.90
16408;DHT22;8313;49.894;8.084;2024-03-23T10:52:33;7.60;99.90
16408;DHT22;8313;49.894;8.084;2024-03-23T10:55:02;7.80;99.90
16408;DHT22;8313;49.894;8.084;2024-03-23T10:59:59;7.70;99.90
16408;DHT22;8313;49.894;8.084;2024-03-23T11:02:27;7.60;99.90
16408;DHT22;8313;49.894;8.084;2024-03-23T11:04:53;7.60;99.90
16408;DHT22;8313;49.894;8.084;2024-03-23T11:07:29;7.40;99.90
16408;DHT22;8313;49.894;8.084;2024-03-23T11:09:55;7.40;99.90
16408;DHT22;8313;49.894;8.084;2024-03-23T11:17:27;8.10;99.90
16408;DHT22;8313;49.894;8.084;2024-03-23T11:19:54;8.30;99.90
16408;DHT22;8313;49.894;8.084;2024-03-23T11:22:41;8.60;99.90
16408;DHT22;8313;49.894;8.084;2024-03-23T11:25:23;8.90;99.90
16408;DHT22;8313;49.894;8.084;2024-03-23T11:30:28;9.20;99.90
16408;DHT22;8313;49.894;8.084;2024-03-23T11:32:56;9.40;99.90
16408;DHT22;8313;49.894;8.084;2024-03-23T11:35:32;9.40;99.90
16408;DHT22;8313;49.894;8.084;2024-03-23T11:38:15;9.70;99.90
16408;DHT22;8313;49.894;8.084;2024-03-23T11:40:50;10.00;99.90
16408;DHT22;8313;49.894;8.084;2024-03-23T11:43:17;10.20;99.90
16408;DHT22;8313;49.894;8.084;2024-03-23T11:45:48;10.40;99.90
16408;DHT22;8313;49.894;8.084;2024-03-23T11:48:19;10.60;99.90
16408;DHT22;8313;49.894;8.084;2024-03-23T11:50:58;10.80;99.90
16408;DHT22;8313;49.894;8.084;2024-03-23T11:53:24;11.00;99.90
16408;DHT22;8313;49.894;8.084;2024-03-23T11:58:23;11.20;99.90
16408;DHT22;8313;49.894;8.084;2024-03-23T12:00:57;11.50;99.90
16408;DHT22;8313;49.894;8.084;2024-03-23T12:03:23;11.60;99.90
16408;DHT22;8313;49.894;8.084;2024-03-23T12:05:54;11.80;99.90
16408;DHT22;8313;49.894;8.084;2024-03-23T12:11:05;11.80;99.90
16408;DHT22;8313;49.894;8.084;2024-03-23T12:13:32;11.80;99.90
16408;DHT22;8313;49.894;8.084;2024-03-23T12:18:34;11.70;99.90
16408;DHT22;8313;49.894;8.084;2024-03-23T12:21:00;11.60;99.90
16408;DHT22;8313;49.894;8.084;2024-03-23T12:23:26;11.60;99.90
16408;DHT22;8313;49.894;8.084;2024-03-23T12:25:51;11.50;99.90
16408;DHT22;8313;49.894;8.084;2024-03-23T12:28:17;11.40;99.90
16408;DHT22;8313;49.894;8.084;2024-03-23T12:30:43;11.40;99.90
16408;DHT22;8313;49.894;8.084;2024-03-23T12:33:08;11.40;99.90
16408;DHT22;8313;49.894;8.084;2024-03-23T12:35:34;11.20;99.90
16408;DHT22;8313;49.894;8.084;2024-03-23T12:38:00;11.20;99.90
16408;DHT22;8313;49.894;8.084;2024-03-23T12:40:26;11.00;99.90
16408;DHT22;8313;49.894;8.084;2024-03-23T12:42:53;10.60;99.90
16408;DHT22;8313;49.894;8.084;2024-03-23T12:45:19;10.50;99.90
16408;DHT22;8313;49.894;8.084;2024-03-23T12:47:44;10.20;99.90
16408;DHT22;8313;49.894;8.084;2024-03-23T12:50:11;10.10;99.90
16408;DHT22;8313;49.894;8.084;2024-03-23T12:52:37;10.00;99.90
16408;DHT22;8313;49.894;8.084;2024-03-23T12:55:03;10.00;99.90
16408;DHT22;8313;49.894;8.084;2024-03-23T12:57:31;9.80;99.90
16408;DHT22;8313;49.894;8.084;2024-03-23T12:59:57;9.80;99.90
16408;DHT22;8313;49.894;8.084;2024-03-23T13:02:23;9.90;99.90
16408;DHT22;8313;49.894;8.084;2024-03-23T13:04:53;10.10;99.90
16408;DHT22;8313;49.894;8.084;2024-03-23T13:07:19;10.20;99.90
16408;DHT22;8313;49.894;8.084;2024-03-23T13:09:45;10.40;99.90
16408;DHT22;8313;49.894;8.084;2024-03-23T13:12:11;10.60;99.90
16408;DHT22;8313;49.894;8.084;2024-03-23T13:14:39;10.70;99.90
16408;DHT22;8313;49.894;8.084;2024-03-23T13:17:06;10.70;99.90
16408;DHT22;8313;49.894;8.084;2024-03-23T13:19:32;10.60;99.90
16408;DHT22;8313;49.894;8.084;2024-03-23T13:21:59;10.60;99.90
16408;DHT22;8313;49.894;8.084;2024-03-23T13:24:26;10.60;99.90
16408;DHT22;8313;49.894;8.084;2024-03-23T13:26:52;10.60;99.90
16408;DHT22;8313;49.894;8.084;2024-03-23T13:29:19;10.50;99.90
16408;DHT22;8313;49.894;8.084;2024-03-23T13:31:48;10.50;99.90
16408;DHT22;8313;49.894;8.084;2024-03-23T13:34:14;10.70;99.90
16408;DHT22;8313;49.894;8.084;2024-03-23T13:36:43;10.80;99.90
16408;DHT22;8313;49.894;8.084;2024-03-23T13:39:10;11.00;99.90
16408;DHT22;8313;49.894;8.084;2024-03-23T13:41:39;11.00;99.90
16408;DHT22;8313;49.894;8.084;2024-03-23T13:44:11;11.20;99.90
16408;DHT22;8313;49.894;8.084;2024-03-23T13:46:41;11.40;99.90
16408;DHT22;8313;49.894;8.084;2024-03-23T13:49:31;11.40;99.90
16408;DHT22;8313;49.894;8.084;2024-03-23T13:51:58;11.30;99.90
16408;DHT22;8313;49.894;8.084;2024-03-23T13:54:27;11.20;99.90
16408;DHT22;8313;49.894;8.084;2024-03-23T13:56:54;11.10;99.90
16408;DHT22;8313;49.894;8.084;2024-03-23T13:59:20;11.00;99.90
16408;DHT22;8313;49.894;8.084;2024-03-23T14:01:46;10.90;99.90
16408;DHT22;8313;49.894;8.084;2024-03-23T14:04:13;10.70;99.90
16408;DHT22;8313;49.894;8.084;2024-03-23T14:06:39;10.40;99.90
16408;DHT22;8313;49.894;8.084;2024-03-23T14:09:05;10.20;99.90
16408;DHT22;8313;49.894;8.084;2024-03-23T14:11:35;10.00;99.90
16408;DHT22;8313;49.894;8.084;2024-03-23T14:14:01;10.00;99.90
16408;DHT22;8313;49.894;8.084;2024-03-23T14:16:29;10.10;99.90
16408;DHT22;8313;49.894;8.084;2024-03-23T14:18:55;10.20;99.90
16408;DHT22;8313;49.894;8.084;2024-03-23T14:21:20;10.10;99.90
16408;DHT22;8313;49.894;8.084;2024-03-23T14:23:46;10.00;99.90
16408;DHT22;8313;49.894;8.084;2024-03-23T14:26:12;9.80;99.90
16408;DHT22;8313;49.894;8.084;2024-03-23T14:28:37;9.80;99.90
16408;DHT22;8313;49.894;8.084;2024-03-23T14:31:03;9.80;99.90
16408;DHT22;8313;49.894;8.084;2024-03-23T14:33:38;9.90;99.90
16408;DHT22;8313;49.894;8.084;2024-03-23T14:36:07;10.10;99.90
16408;DHT22;8313;49.894;8.084;2024-03-23T14:38:33;10.30;99.90
16408;DHT22;8313;49.894;8.084;2024-03-23T14:41:00;10.50;99.90
16408;DHT22;8313;49.894;8.084;2024-03-23T14:43:26;10.70;99.90
16408;DHT22;8313;49.894;8.084;2024-03-23T14:46:21;10.70;99.90
16408;DHT22;8313;49.894;8.084;2024-03-23T14:48:48;10.90;99.90
16408;DHT22;8313;49.894;8.084;2024-03-23T14:51:13;11.10;99.90
16408;DHT22;8313;49.894;8.084;2024-03-23T14:53:45;11.10;99.90
16408;DHT22;8313;49.894;8.084;2024-03-23T14:56:11;11.00;99.90
16408;DHT22;8313;49.894;8.084;2024-03-23T14:58:39;10.90;99.90
16408;DHT22;8313;49.894;8.084;2024-03-23T15:01:06;10.90;99.90
16408;DHT22;8313;49.894;8.084;2024-03-23T15:03:38;10.70;99.90
16408;DHT22;8313;49.894;8.084;2024-03-23T15:06:05;10.60;99.90
16408;DHT22;8313;49.894;8.084;2024-03-23T15:08:31;10.40;99.90
16408;DHT22;8313;49.894;8.084;2024-03-23T15:11:00;10.20;99.90
16408;DHT22;8313;49.894;8.084;2024-03-23T15:13:34;10.10;99.90
16408;DHT22;8313;49.894;8.084;2024-03-23T15:16:00;9.90;99.90
16408;DHT22;8313;49.894;8.084;2024-03-23T15:18:26;9.80;99.90
16408;DHT22;8313;49.894;8.084;2024-03-23T15:20:56;9.40;99.90
16408;DHT22;8313;49.894;8.084;2024-03-23T15:23:22;9.30;99.90
16408;DHT22;8313;49.894;8.084;2024-03-23T15:25:59;9.10;99.90
16408;DHT22;8313;49.894;8.084;2024-03-23T15:28:25;9.10;99.90
16408;DHT22;8313;49.894;8.084;2024-03-23T15:30:58;9.40;99.90
16408;DHT22;8313;49.894;8.084;2024-03-23T15:33:24;9.50;99.90
16408;DHT22;8313;49.894;8.084;2024-03-23T15:35:50;9.50;99.90
16408;DHT22;8313;49.894;8.084;2024-03-23T15:38:15;9.70;99.90
16408;DHT22;8313;49.894;8.084;2024-03-23T15:40:41;9.60;99.90
16408;DHT22;8313;49.894;8.084;2024-03-23T15:43:06;9.70;99.90
16408;DHT22;8313;49.894;8.084;2024-03-23T15:45:32;9.70;99.90
16408;DHT22;8313;49.894;8.084;2024-03-23T15:47:58;9.70;99.90
16408;DHT22;8313;49.894;8.084;2024-03-23T15:50:23;9.70;99.90
16408;DHT22;8313;49.894;8.084;2024-03-23T15:52:49;9.70;99.90
16408;DHT22;8313;49.894;8.084;2024-03-23T15:55:16;9.60;99.90
16408;DHT22;8313;49.894;8.084;2024-03-23T15:57:42;9.40;99.90
16408;DHT22;8313;49.894;8.084;2024-03-23T16:00:08;9.40;99.90
16408;DHT22;8313;49.894;8.084;2024-03-23T16:02:38;9.30;99.90
16408;DHT22;8313;49.894;8.084;2024-03-23T16:05:04;9.30;99.90
16408;DHT22;8313;49.894;8.084;2024-03-23T16:07:29;9.30;99.90
16408;DHT22;8313;49.894;8.084;2024-03-23T16:09:55;9.20;99.90
16408;DHT22;8313;49.894;8.084;2024-03-23T16:12:22;9.10;99.90
16408;DHT22;8313;49.894;8.084;2024-03-23T16:14:47;9.10;99.90
16408;DHT22;8313;49.894;8.084;2024-03-23T16:17:13;9.00;99.90
16408;DHT22;8313;49.894;8.084;2024-03-23T16:19:38;9.00;99.90
16408;DHT22;8313;49.894;8.084;2024-03-23T16:22:04;9.10;99.90
16408;DHT22;8313;49.894;8.084;2024-03-23T16:24:30;9.10;99.90
16408;DHT22;8313;49.894;8.084;2024-03-23T16:26:55;9.10;99.90
16408;DHT22;8313;49.894;8.084;2024-03-23T16:29:21;9.10;99.90
16408;DHT22;8313;49.894;8.084;2024-03-23T16:31:47;9.20;99.90
16408;DHT22;8313;49.894;8.084;2024-03-23T16:34:12;9.20;99.90
16408;DHT22;8313;49.894;8.084;2024-03-23T16:36:38;9.20;99.90
16408;DHT22;8313;49.894;8.084;2024-03-23T16:39:03;9.10;99.90
16408;DHT22;8313;49.894;8.084;2024-03-23T16:41:29;8.90;99.90
16408;DHT22;8313;49.894;8.084;2024-03-23T16:43:55;8.90;99.90
16408;DHT22;8313;49.894;8.084;2024-03-23T16:46:20;8.80;99.90
16408;DHT22;8313;49.894;8.084;2024-03-23T16:48:46;8.70;99.90
16408;DHT22;8313;49.894;8.084;2024-03-23T16:51:12;8.60;99.90
16408;DHT22;8313;49.894;8.084;2024-03-23T16:53:39;8.60;99.90
16408;DHT22;8313;49.894;8.084;2024-03-23T16:56:07;8.50;99.90
16408;DHT22;8313;49.894;8.084;2024-03-23T16:58:35;8.60;99.90
16408;DHT22;8313;49.894;8.084;2024-03-23T17:01:05;8.40;99.90
16408;DHT22;8313;49.894;8.084;2024-03-23T17:03:33;8.50;99.90
16408;DHT22;8313;49.894;8.084;2024-03-23T17:06:05;8.40;99.90
16408;DHT22;8313;49.894;8.084;2024-03-23T17:08:34;8.30;99.90
16408;DHT22;8313;49.894;8.084;2024-03-23T17:11:01;8.40;99.90
16408;DHT22;8313;49.894;8.084;2024-03-23T17:13:28;8.30;99.90